sensor_id;sensor_type;location;lat;lon;timestamp;temperature;humidity
70676;DHT22;59069;52.242;20.900;2024-01-25T00:01:21;6.45;83.27
70676;DHT22;59069;52.242;20.900;2024-01-25T00:03:47;6.48;83.38
70676;DHT22;59069;52.242;20.900;2024-01-25T00:06:12;6.45;83.43
70676;DHT22;59069;52.242;20.900;2024-01-25T00:08:38;6.45;83.34
70676;DHT22;59069;52.242;20.900;2024-01-25T00:11:04;6.45;83.25
70676;DHT22;59069;52.242;20.900;2024-01-25T00:13:30;6.44;83.11
70676;DHT22;59069;52.242;20.900;2024-01-25T00:15:55;6.38;83.06
70676;DHT22;59069;52.242;20.900;2024-01-25T00:18:21;6.41;82.94
70676;DHT22;59069;52.242;20.900;2024-01-25T00:20:46;6.38;82.83
70676;DHT22;59069;52.242;20.900;2024-01-25T00:23:12;6.33;82.79
70676;DHT22;59069;52.242;20.900;2024-01-25T00:25:37;6.37;82.68
70676;DHT22;59069;52.242;20.900;2024-01-25T00:28:03;6.36;82.71
70676;DHT22;59069;52.242;20.900;2024-01-25T00:30:29;6.33;82.79
70676;DHT22;59069;52.242;20.900;2024-01-25T00:32:55;6.27;82.99
70676;DHT22;59069;52.242;20.900;2024-01-25T00:35:21;6.21;83.24
70676;DHT22;59069;52.242;20.900;2024-01-25T00:37:47;6.16;83.54
70676;DHT22;59069;52.242;20.900;2024-01-25T00:40:12;6.14;83.83
70676;DHT22;59069;52.242;20.900;2024-01-25T00:42:45;6.07;84.19
70676;DHT22;59069;52.242;20.900;2024-01-25T00:45:18;6.05;84.43
70676;DHT22;59069;52.242;20.900;2024-01-25T00:47:44;6.05;84.72
70676;DHT22;59069;52.242;20.900;2024-01-25T00:50:10;6.03;84.95
70676;DHT22;59069;52.242;20.900;2024-01-25T00:52:36;6.00;85.16
70676;DHT22;59069;52.242;20.900;2024-01-25T00:55:02;5.99;85.34
70676;DHT22;59069;52.242;20.900;2024-01-25T00:57:28;5.99;85.54
70676;DHT22;59069;52.242;20.900;2024-01-25T00:59:54;5.96;85.69
70676;DHT22;59069;52.242;20.900;2024-01-25T01:02:21;5.98;85.82
70676;DHT22;59069;52.242;20.900;2024-01-25T01:04:47;5.93;85.98
70676;DHT22;59069;52.242;20.900;2024-01-25T01:07:13;5.93;86.13
70676;DHT22;59069;52.242;20.900;2024-01-25T01:09:39;5.90;86.30
70676;DHT22;59069;52.242;20.900;2024-01-25T01:12:04;5.90;86.44
70676;DHT22;59069;52.242;20.900;2024-01-25T01:14:31;5.88;86.46
70676;DHT22;59069;52.242;20.900;2024-01-25T01:16:56;5.89;86.52
70676;DHT22;59069;52.242;20.900;2024-01-25T01:19:22;5.90;86.55
70676;DHT22;59069;52.242;20.900;2024-01-25T01:21:47;5.92;86.51
70676;DHT22;59069;52.242;20.900;2024-01-25T01:24:13;5.95;86.39
70676;DHT22;59069;52.242;20.900;2024-01-25T01:26:38;5.95;86.32
70676;DHT22;59069;52.242;20.900;2024-01-25T01:29:04;5.93;86.20
70676;DHT22;59069;52.242;20.900;2024-01-25T01:31:30;5.95;86.17
70676;DHT22;59069;52.242;20.900;2024-01-25T01:33:55;5.93;86.16
70676;DHT22;59069;52.242;20.900;2024-01-25T01:36:21;5.95;86.16
70676;DHT22;59069;52.242;20.900;2024-01-25T01:38:47;5.90;86.17
70676;DHT22;59069;52.242;20.900;2024-01-25T01:41:13;5.90;86.26
70676;DHT22;59069;52.242;20.900;2024-01-25T01:43:38;5.92;86.26
70676;DHT22;59069;52.242;20.900;2024-01-25T01:46:09;5.92;86.28
70676;DHT22;59069;52.242;20.900;2024-01-25T01:48:36;5.90;86.25
70676;DHT22;59069;52.242;20.900;2024-01-25T01:51:02;5.89;86.27
70676;DHT22;59069;52.242;20.900;2024-01-25T01:53:28;5.90;86.27
70676;DHT22;59069;52.242;20.900;2024-01-25T01:55:53;5.86;86.23
70676;DHT22;59069;52.242;20.900;2024-01-25T01:58:20;5.88;86.21
70676;DHT22;59069;52.242;20.900;2024-01-25T02:00:48;5.88;86.17
70676;DHT22;59069;52.242;20.900;2024-01-25T02:03:14;5.89;86.06
70676;DHT22;59069;52.242;20.900;2024-01-25T02:05:41;5.89;86.03
70676;DHT22;59069;52.242;20.900;2024-01-25T02:08:06;5.89;85.96
70676;DHT22;59069;52.242;20.900;2024-01-25T02:10:32;5.92;85.84
70676;DHT22;59069;52.242;20.900;2024-01-25T02:12:58;5.92;85.77
70676;DHT22;59069;52.242;20.900;2024-01-25T02:15:23;5.90;85.75
70676;DHT22;59069;52.242;20.900;2024-01-25T02:17:49;5.95;85.65
70676;DHT22;59069;52.242;20.900;2024-01-25T02:20:14;5.95;85.55
70676;DHT22;59069;52.242;20.900;2024-01-25T02:22:40;5.98;85.54
70676;DHT22;59069;52.242;20.900;2024-01-25T02:25:05;5.95;85.45
70676;DHT22;59069;52.242;20.900;2024-01-25T02:27:31;5.96;85.46
70676;DHT22;59069;52.242;20.900;2024-01-25T02:29:56;5.95;85.52
70676;DHT22;59069;52.242;20.900;2024-01-25T02:32:22;5.93;85.55
70676;DHT22;59069;52.242;20.900;2024-01-25T02:34:47;5.90;85.58
70676;DHT22;59069;52.242;20.900;2024-01-25T02:37:13;5.90;85.58
70676;DHT22;59069;52.242;20.900;2024-01-25T02:39:39;5.82;85.63
70676;DHT22;59069;52.242;20.900;2024-01-25T02:42:05;5.79;85.73
70676;DHT22;59069;52.242;20.900;2024-01-25T02:44:30;5.76;85.88
70676;DHT22;59069;52.242;20.900;2024-01-25T02:46:55;5.73;85.92
70676;DHT22;59069;52.242;20.900;2024-01-25T02:49:21;5.72;85.98
70676;DHT22;59069;52.242;20.900;2024-01-25T02:51:48;5.68;86.09
70676;DHT22;59069;52.242;20.900;2024-01-25T02:54:14;5.68;86.14
70676;DHT22;59069;52.242;20.900;2024-01-25T02:56:39;5.65;86.24
70676;DHT22;59069;52.242;20.900;2024-01-25T02:59:04;5.63;86.36
70676;DHT22;59069;52.242;20.900;2024-01-25T03:01:40;5.63;86.44
70676;DHT22;59069;52.242;20.900;2024-01-25T03:04:06;5.62;86.55
70676;DHT22;59069;52.242;20.900;2024-01-25T03:06:32;5.62;86.58
70676;DHT22;59069;52.242;20.900;2024-01-25T03:08:57;5.61;86.63
70676;DHT22;59069;52.242;20.900;2024-01-25T03:11:23;5.63;86.67
70676;DHT22;59069;52.242;20.900;2024-01-25T03:13:48;5.62;86.73
70676;DHT22;59069;52.242;20.900;2024-01-25T03:16:14;5.58;86.73
70676;DHT22;59069;52.242;20.900;2024-01-25T03:18:39;5.61;86.83
70676;DHT22;59069;52.242;20.900;2024-01-25T03:21:05;5.58;86.90
70676;DHT22;59069;52.242;20.900;2024-01-25T03:23:30;5.54;86.96
70676;DHT22;59069;52.242;20.900;2024-01-25T03:25:55;5.51;87.05
70676;DHT22;59069;52.242;20.900;2024-01-25T03:28:21;5.48;87.15
70676;DHT22;59069;52.242;20.900;2024-01-25T03:30:46;5.45;87.24
70676;DHT22;59069;52.242;20.900;2024-01-25T03:33:12;5.44;87.37
70676;DHT22;59069;52.242;20.900;2024-01-25T03:35:37;5.42;87.45
70676;DHT22;59069;52.242;20.900;2024-01-25T03:38:03;5.39;87.48
70676;DHT22;59069;52.242;20.900;2024-01-25T03:40:28;5.42;87.58
70676;DHT22;59069;52.242;20.900;2024-01-25T03:42:54;5.38;87.56
70676;DHT22;59069;52.242;20.900;2024-01-25T03:45:19;5.38;87.60
70676;DHT22;59069;52.242;20.900;2024-01-25T03:47:44;5.39;87.60
70676;DHT22;59069;52.242;20.900;2024-01-25T03:50:10;5.35;87.60
70676;DHT22;59069;52.242;20.900;2024-01-25T03:52:35;5.37;87.62
70676;DHT22;59069;52.242;20.900;2024-01-25T03:55:01;5.37;87.58
70676;DHT22;59069;52.242;20.900;2024-01-25T03:57:26;5.38;87.56
70676;DHT22;59069;52.242;20.900;2024-01-25T03:59:52;5.35;87.53
70676;DHT22;59069;52.242;20.900;2024-01-25T04:02:17;5.32;87.50
70676;DHT22;59069;52.242;20.900;2024-01-25T04:04:43;5.35;87.43
70676;DHT22;59069;52.242;20.900;2024-01-25T04:07:09;5.35;87.40
70676;DHT22;59069;52.242;20.900;2024-01-25T04:09:34;5.31;87.44
70676;DHT22;59069;52.242;20.900;2024-01-25T04:12:00;5.30;87.44
70676;DHT22;59069;52.242;20.900;2024-01-25T04:14:25;5.34;87.55
70676;DHT22;59069;52.242;20.900;2024-01-25T04:16:51;5.31;87.59
70676;DHT22;59069;52.242;20.900;2024-01-25T04:19:16;5.30;87.61
70676;DHT22;59069;52.242;20.900;2024-01-25T04:21:41;5.28;87.65
70676;DHT22;59069;52.242;20.900;2024-01-25T04:24:07;5.27;87.68
70676;DHT22;59069;52.242;20.900;2024-01-25T04:26:32;5.24;87.68
70676;DHT22;59069;52.242;20.900;2024-01-25T04:28:58;5.26;87.76
70676;DHT22;59069;52.242;20.900;2024-01-25T04:31:23;5.23;87.72
70676;DHT22;59069;52.242;20.900;2024-01-25T04:33:49;5.23;87.64
70676;DHT22;59069;52.242;20.900;2024-01-25T04:36:14;5.20;87.67
70676;DHT22;59069;52.242;20.900;2024-01-25T04:38:40;5.21;87.67
70676;DHT22;59069;52.242;20.900;2024-01-25T04:41:05;5.23;87.60
70676;DHT22;59069;52.242;20.900;2024-01-25T04:43:35;5.24;87.50
70676;DHT22;59069;52.242;20.900;2024-01-25T04:46:02;5.21;87.44
70676;DHT22;59069;52.242;20.900;2024-01-25T04:48:28;5.26;87.35
70676;DHT22;59069;52.242;20.900;2024-01-25T04:50:54;5.23;87.24
70676;DHT22;59069;52.242;20.900;2024-01-25T04:53:19;5.23;87.16
70676;DHT22;59069;52.242;20.900;2024-01-25T04:55:44;5.23;87.06
70676;DHT22;59069;52.242;20.900;2024-01-25T04:58:10;5.23;86.96
70676;DHT22;59069;52.242;20.900;2024-01-25T05:00:36;5.24;86.87
70676;DHT22;59069;52.242;20.900;2024-01-25T05:03:03;5.23;86.75
70676;DHT22;59069;52.242;20.900;2024-01-25T05:05:29;5.20;86.70
70676;DHT22;59069;52.242;20.900;2024-01-25T05:07:54;5.20;86.69
70676;DHT22;59069;52.242;20.900;2024-01-25T05:10:20;5.18;86.63
70676;DHT22;59069;52.242;20.900;2024-01-25T05:12:45;5.20;86.61
70676;DHT22;59069;52.242;20.900;2024-01-25T05:15:11;5.21;86.52
70676;DHT22;59069;52.242;20.900;2024-01-25T05:17:36;5.23;86.40
70676;DHT22;59069;52.242;20.900;2024-01-25T05:20:02;5.26;86.32
70676;DHT22;59069;52.242;20.900;2024-01-25T05:22:28;5.31;86.18
70676;DHT22;59069;52.242;20.900;2024-01-25T05:24:53;5.31;86.01
70676;DHT22;59069;52.242;20.900;2024-01-25T05:27:19;5.32;85.89
70676;DHT22;59069;52.242;20.900;2024-01-25T05:29:44;5.38;85.70
70676;DHT22;59069;52.242;20.900;2024-01-25T05:32:09;5.41;85.49
70676;DHT22;59069;52.242;20.900;2024-01-25T05:34:35;5.42;85.37
70676;DHT22;59069;52.242;20.900;2024-01-25T05:37:00;5.48;85.16
70676;DHT22;59069;52.242;20.900;2024-01-25T05:39:26;5.45;84.93
70676;DHT22;59069;52.242;20.900;2024-01-25T05:41:51;5.47;84.81
70676;DHT22;59069;52.242;20.900;2024-01-25T05:44:17;5.48;84.71
70676;DHT22;59069;52.242;20.900;2024-01-25T05:46:42;5.52;84.64
70676;DHT22;59069;52.242;20.900;2024-01-25T05:49:08;5.54;84.53
70676;DHT22;59069;52.242;20.900;2024-01-25T05:51:33;5.52;84.46
70676;DHT22;59069;52.242;20.900;2024-01-25T05:53:58;5.52;84.38
70676;DHT22;59069;52.242;20.900;2024-01-25T05:56:24;5.56;84.28
70676;DHT22;59069;52.242;20.900;2024-01-25T05:58:50;5.55;84.13
70676;DHT22;59069;52.242;20.900;2024-01-25T06:01:16;5.58;84.04
70676;DHT22;59069;52.242;20.900;2024-01-25T06:03:41;5.59;83.99
70676;DHT22;59069;52.242;20.900;2024-01-25T06:06:07;5.59;83.87
70676;DHT22;59069;52.242;20.900;2024-01-25T06:08:35;5.61;83.74
70676;DHT22;59069;52.242;20.900;2024-01-25T06:11:01;5.56;83.67
70676;DHT22;59069;52.242;20.900;2024-01-25T06:13:26;5.55;83.64
70676;DHT22;59069;52.242;20.900;2024-01-25T06:15:52;5.54;83.60
70676;DHT22;59069;52.242;20.900;2024-01-25T06:18:17;5.54;83.63
70676;DHT22;59069;52.242;20.900;2024-01-25T06:20:43;5.52;83.64
70676;DHT22;59069;52.242;20.900;2024-01-25T06:23:09;5.51;83.73
70676;DHT22;59069;52.242;20.900;2024-01-25T06:25:34;5.51;83.76
70676;DHT22;59069;52.242;20.900;2024-01-25T06:28:01;5.52;83.77
70676;DHT22;59069;52.242;20.900;2024-01-25T06:30:27;5.54;83.70
70676;DHT22;59069;52.242;20.900;2024-01-25T06:32:52;5.55;83.70
70676;DHT22;59069;52.242;20.900;2024-01-25T06:35:18;5.52;83.68
70676;DHT22;59069;52.242;20.900;2024-01-25T06:37:44;5.52;83.66
70676;DHT22;59069;52.242;20.900;2024-01-25T06:40:09;5.54;83.68
70676;DHT22;59069;52.242;20.900;2024-01-25T06:42:35;5.52;83.70
70676;DHT22;59069;52.242;20.900;2024-01-25T06:45:00;5.52;83.71
70676;DHT22;59069;52.242;20.900;2024-01-25T06:47:26;5.54;83.82
70676;DHT22;59069;52.242;20.900;2024-01-25T06:49:51;5.51;83.87
70676;DHT22;59069;52.242;20.900;2024-01-25T06:52:18;5.52;84.00
70676;DHT22;59069;52.242;20.900;2024-01-25T06:54:44;5.51;84.19
70676;DHT22;59069;52.242;20.900;2024-01-25T06:57:09;5.49;84.40
70676;DHT22;59069;52.242;20.900;2024-01-25T06:59:35;5.45;84.58
70676;DHT22;59069;52.242;20.900;2024-01-25T07:02:00;5.47;84.80
70676;DHT22;59069;52.242;20.900;2024-01-25T07:04:28;5.47;84.95
70676;DHT22;59069;52.242;20.900;2024-01-25T07:06:53;5.42;85.13
70676;DHT22;59069;52.242;20.900;2024-01-25T07:09:19;5.41;85.24
70676;DHT22;59069;52.242;20.900;2024-01-25T07:11:44;5.41;85.42
70676;DHT22;59069;52.242;20.900;2024-01-25T07:14:10;5.38;85.59
70676;DHT22;59069;52.242;20.900;2024-01-25T07:16:35;5.38;85.80
70676;DHT22;59069;52.242;20.900;2024-01-25T07:19:01;5.34;86.03
70676;DHT22;59069;52.242;20.900;2024-01-25T07:21:26;5.32;86.27
70676;DHT22;59069;52.242;20.900;2024-01-25T07:23:51;5.31;86.46
70676;DHT22;59069;52.242;20.900;2024-01-25T07:26:20;5.32;86.65
70676;DHT22;59069;52.242;20.900;2024-01-25T07:28:46;5.32;86.82
70676;DHT22;59069;52.242;20.900;2024-01-25T07:31:12;5.34;86.92
70676;DHT22;59069;52.242;20.900;2024-01-25T07:33:37;5.32;87.03
70676;DHT22;59069;52.242;20.900;2024-01-25T07:36:03;5.35;87.15
70676;DHT22;59069;52.242;20.900;2024-01-25T07:38:29;5.35;87.18
70676;DHT22;59069;52.242;20.900;2024-01-25T07:40:54;5.35;87.28
70676;DHT22;59069;52.242;20.900;2024-01-25T07:43:20;5.38;87.58
70676;DHT22;59069;52.242;20.900;2024-01-25T07:45:46;5.41;87.45
70676;DHT22;59069;52.242;20.900;2024-01-25T07:48:11;5.42;87.34
70676;DHT22;59069;52.242;20.900;2024-01-25T07:50:37;5.44;87.31
70676;DHT22;59069;52.242;20.900;2024-01-25T07:53:02;5.47;87.32
70676;DHT22;59069;52.242;20.900;2024-01-25T07:55:28;5.49;87.28
70676;DHT22;59069;52.242;20.900;2024-01-25T07:57:55;5.51;87.25
70676;DHT22;59069;52.242;20.900;2024-01-25T08:00:20;5.54;87.22
70676;DHT22;59069;52.242;20.900;2024-01-25T08:02:46;5.55;87.12
70676;DHT22;59069;52.242;20.900;2024-01-25T08:05:11;5.54;87.13
70676;DHT22;59069;52.242;20.900;2024-01-25T08:07:37;5.54;87.05
70676;DHT22;59069;52.242;20.900;2024-01-25T08:10:04;5.56;86.97
70676;DHT22;59069;52.242;20.900;2024-01-25T08:12:30;5.55;86.95
70676;DHT22;59069;52.242;20.900;2024-01-25T08:14:55;5.56;86.91
70676;DHT22;59069;52.242;20.900;2024-01-25T08:17:21;5.54;86.87
70676;DHT22;59069;52.242;20.900;2024-01-25T08:19:46;5.56;86.89
70676;DHT22;59069;52.242;20.900;2024-01-25T08:22:12;5.56;86.89
70676;DHT22;59069;52.242;20.900;2024-01-25T08:24:40;5.56;86.92
70676;DHT22;59069;52.242;20.900;2024-01-25T08:27:05;5.58;86.97
70676;DHT22;59069;52.242;20.900;2024-01-25T08:29:33;5.63;86.97
70676;DHT22;59069;52.242;20.900;2024-01-25T08:31:58;5.61;86.85
70676;DHT22;59069;52.242;20.900;2024-01-25T08:34:23;5.63;86.75
70676;DHT22;59069;52.242;20.900;2024-01-25T08:36:49;5.68;86.75
70676;DHT22;59069;52.242;20.900;2024-01-25T08:39:14;5.65;86.68
70676;DHT22;59069;52.242;20.900;2024-01-25T08:41:41;5.66;86.71
70676;DHT22;59069;52.242;20.900;2024-01-25T08:44:07;5.68;86.66
70676;DHT22;59069;52.242;20.900;2024-01-25T08:46:33;5.63;86.63
70676;DHT22;59069;52.242;20.900;2024-01-25T08:48:58;5.65;86.69
70676;DHT22;59069;52.242;20.900;2024-01-25T08:51:24;5.66;86.81
70676;DHT22;59069;52.242;20.900;2024-01-25T08:53:49;5.69;86.75
70676;DHT22;59069;52.242;20.900;2024-01-25T08:56:16;5.68;86.72
70676;DHT22;59069;52.242;20.900;2024-01-25T08:58:42;5.68;86.75
70676;DHT22;59069;52.242;20.900;2024-01-25T09:01:07;5.65;86.87
70676;DHT22;59069;52.242;20.900;2024-01-25T09:03:33;5.65;86.99
70676;DHT22;59069;52.242;20.900;2024-01-25T09:05:59;5.65;87.13
70676;DHT22;59069;52.242;20.900;2024-01-25T09:08:30;5.63;87.25
70676;DHT22;59069;52.242;20.900;2024-01-25T09:10:56;5.65;87.45
70676;DHT22;59069;52.242;20.900;2024-01-25T09:13:21;5.66;87.68
70676;DHT22;59069;52.242;20.900;2024-01-25T09:15:48;5.68;87.64
70676;DHT22;59069;52.242;20.900;2024-01-25T09:18:13;5.68;87.62
70676;DHT22;59069;52.242;20.900;2024-01-25T09:20:39;5.68;87.70
70676;DHT22;59069;52.242;20.900;2024-01-25T09:23:06;5.66;87.86
70676;DHT22;59069;52.242;20.900;2024-01-25T09:25:31;5.66;88.00
70676;DHT22;59069;52.242;20.900;2024-01-25T09:27:57;5.68;88.02
70676;DHT22;59069;52.242;20.900;2024-01-25T09:30:23;5.69;88.04
70676;DHT22;59069;52.242;20.900;2024-01-25T09:32:48;5.71;88.09
70676;DHT22;59069;52.242;20.900;2024-01-25T09:35:14;5.69;88.11
70676;DHT22;59069;52.242;20.900;2024-01-25T09:37:40;5.71;88.21
70676;DHT22;59069;52.242;20.900;2024-01-25T09:40:06;5.72;88.36
70676;DHT22;59069;52.242;20.900;2024-01-25T09:42:31;5.72;88.33
70676;DHT22;59069;52.242;20.900;2024-01-25T09:44:57;5.73;88.52
70676;DHT22;59069;52.242;20.900;2024-01-25T09:47:23;5.76;88.45
70676;DHT22;59069;52.242;20.900;2024-01-25T09:49:48;5.72;88.43
70676;DHT22;59069;52.242;20.900;2024-01-25T09:52:14;5.75;88.55
70676;DHT22;59069;52.242;20.900;2024-01-25T09:54:41;5.75;88.67
70676;DHT22;59069;52.242;20.900;2024-01-25T09:57:14;5.78;88.69
70676;DHT22;59069;52.242;20.900;2024-01-25T09:59:43;5.80;88.62
70676;DHT22;59069;52.242;20.900;2024-01-25T10:02:09;5.83;88.68
70676;DHT22;59069;52.242;20.900;2024-01-25T10:04:35;5.86;88.52
70676;DHT22;59069;52.242;20.900;2024-01-25T10:07:01;5.88;88.32
70676;DHT22;59069;52.242;20.900;2024-01-25T10:09:26;5.88;88.30
70676;DHT22;59069;52.242;20.900;2024-01-25T10:11:52;5.86;88.12
70676;DHT22;59069;52.242;20.900;2024-01-25T10:14:17;5.88;88.05
70676;DHT22;59069;52.242;20.900;2024-01-25T10:16:45;5.86;87.95
70676;DHT22;59069;52.242;20.900;2024-01-25T10:19:11;5.86;87.95
70676;DHT22;59069;52.242;20.900;2024-01-25T10:21:37;5.86;88.03
70676;DHT22;59069;52.242;20.900;2024-01-25T10:24:03;5.90;88.08
70676;DHT22;59069;52.242;20.900;2024-01-25T10:26:30;5.92;88.02
70676;DHT22;59069;52.242;20.900;2024-01-25T10:28:56;5.88;87.87
70676;DHT22;59069;52.242;20.900;2024-01-25T10:31:24;5.92;87.93
70676;DHT22;59069;52.242;20.900;2024-01-25T10:33:52;5.90;88.07
70676;DHT22;59069;52.242;20.900;2024-01-25T10:36:20;5.93;88.09
70676;DHT22;59069;52.242;20.900;2024-01-25T10:38:48;5.96;88.05
70676;DHT22;59069;52.242;20.900;2024-01-25T10:41:14;6.02;87.88
70676;DHT22;59069;52.242;20.900;2024-01-25T10:43:40;6.06;87.74
70676;DHT22;59069;52.242;20.900;2024-01-25T10:46:06;6.09;87.49
70676;DHT22;59069;52.242;20.900;2024-01-25T10:48:32;6.10;87.28
70676;DHT22;59069;52.242;20.900;2024-01-25T10:50:58;6.13;87.01
70676;DHT22;59069;52.242;20.900;2024-01-25T10:53:30;6.14;86.82
70676;DHT22;59069;52.242;20.900;2024-01-25T10:55:56;6.16;86.78
70676;DHT22;59069;52.242;20.900;2024-01-25T10:58:22;6.19;86.60
70676;DHT22;59069;52.242;20.900;2024-01-25T11:00:57;6.20;86.61
70676;DHT22;59069;52.242;20.900;2024-01-25T11:03:26;6.20;86.38
70676;DHT22;59069;52.242;20.900;2024-01-25T11:05:52;6.29;86.59
70676;DHT22;59069;52.242;20.900;2024-01-25T11:08:19;6.38;86.56
70676;DHT22;59069;52.242;20.900;2024-01-25T11:10:49;6.45;85.92
70676;DHT22;59069;52.242;20.900;2024-01-25T11:13:16;6.44;85.45
70676;DHT22;59069;52.242;20.900;2024-01-25T11:15:41;6.48;85.02
70676;DHT22;59069;52.242;20.900;2024-01-25T11:18:08;6.45;84.39
70676;DHT22;59069;52.242;20.900;2024-01-25T11:20:35;6.43;84.31
70676;DHT22;59069;52.242;20.900;2024-01-25T11:23:07;6.38;84.19
70676;DHT22;59069;52.242;20.900;2024-01-25T11:25:36;6.36;84.15
70676;DHT22;59069;52.242;20.900;2024-01-25T11:28:04;6.36;84.25
70676;DHT22;59069;52.242;20.900;2024-01-25T11:30:33;6.33;84.14
70676;DHT22;59069;52.242;20.900;2024-01-25T11:32:59;6.33;84.08
70676;DHT22;59069;52.242;20.900;2024-01-25T11:35:25;6.33;84.13
70676;DHT22;59069;52.242;20.900;2024-01-25T11:37:50;6.33;83.96
70676;DHT22;59069;52.242;20.900;2024-01-25T11:40:19;6.34;83.64
70676;DHT22;59069;52.242;20.900;2024-01-25T11:42:48;6.31;83.76
70676;DHT22;59069;52.242;20.900;2024-01-25T11:45:14;6.31;83.74
70676;DHT22;59069;52.242;20.900;2024-01-25T11:47:41;6.33;83.84
70676;DHT22;59069;52.242;20.900;2024-01-25T11:50:09;6.31;83.93
70676;DHT22;59069;52.242;20.900;2024-01-25T11:52:35;6.36;83.62
70676;DHT22;59069;52.242;20.900;2024-01-25T11:55:05;6.37;83.55
70676;DHT22;59069;52.242;20.900;2024-01-25T11:57:34;6.34;83.55
70676;DHT22;59069;52.242;20.900;2024-01-25T12:00:00;6.38;83.43
70676;DHT22;59069;52.242;20.900;2024-01-25T12:02:26;6.37;83.57
70676;DHT22;59069;52.242;20.900;2024-01-25T12:04:52;6.40;83.43
70676;DHT22;59069;52.242;20.900;2024-01-25T12:07:20;6.40;83.15
70676;DHT22;59069;52.242;20.900;2024-01-25T12:09:59;6.41;83.07
70676;DHT22;59069;52.242;20.900;2024-01-25T12:12:25;6.38;83.14
70676;DHT22;59069;52.242;20.900;2024-01-25T12:14:51;6.38;83.29
70676;DHT22;59069;52.242;20.900;2024-01-25T12:17:17;6.40;83.28
70676;DHT22;59069;52.242;20.900;2024-01-25T12:19:43;6.34;83.23
70676;DHT22;59069;52.242;20.900;2024-01-25T12:22:08;6.31;83.46
70676;DHT22;59069;52.242;20.900;2024-01-25T12:24:35;6.24;83.81
70676;DHT22;59069;52.242;20.900;2024-01-25T12:27:00;6.20;84.18
70676;DHT22;59069;52.242;20.900;2024-01-25T12:29:26;6.16;84.45
70676;DHT22;59069;52.242;20.900;2024-01-25T12:31:51;6.09;84.78
70676;DHT22;59069;52.242;20.900;2024-01-25T12:34:16;6.05;85.04
70676;DHT22;59069;52.242;20.900;2024-01-25T12:36:42;6.03;85.40
70676;DHT22;59069;52.242;20.900;2024-01-25T12:39:08;5.99;85.49
70676;DHT22;59069;52.242;20.900;2024-01-25T12:41:35;5.90;85.36
70676;DHT22;59069;52.242;20.900;2024-01-25T12:44:00;5.78;85.41
70676;DHT22;59069;52.242;20.900;2024-01-25T12:46:26;5.62;85.37
70676;DHT22;59069;52.242;20.900;2024-01-25T12:48:51;5.52;85.32
70676;DHT22;59069;52.242;20.900;2024-01-25T12:51:20;5.39;85.29
70676;DHT22;59069;52.242;20.900;2024-01-25T12:53:47;5.31;85.44
70676;DHT22;59069;52.242;20.900;2024-01-25T12:56:12;5.24;85.62
70676;DHT22;59069;52.242;20.900;2024-01-25T12:58:38;5.17;85.88
70676;DHT22;59069;52.242;20.900;2024-01-25T13:01:04;5.06;85.56
70676;DHT22;59069;52.242;20.900;2024-01-25T13:03:30;5.00;85.84
70676;DHT22;59069;52.242;20.900;2024-01-25T13:05:55;4.91;85.67
70676;DHT22;59069;52.242;20.900;2024-01-25T13:08:20;4.87;85.43
70676;DHT22;59069;52.242;20.900;2024-01-25T13:10:46;4.79;85.41
70676;DHT22;59069;52.242;20.900;2024-01-25T13:13:11;4.75;85.60
70676;DHT22;59069;52.242;20.900;2024-01-25T13:15:37;4.76;85.78
70676;DHT22;59069;52.242;20.900;2024-01-25T13:18:02;4.77;85.87
70676;DHT22;59069;52.242;20.900;2024-01-25T13:20:28;4.87;86.36
70676;DHT22;59069;52.242;20.900;2024-01-25T13:22:53;4.96;86.69
70676;DHT22;59069;52.242;20.900;2024-01-25T13:25:19;4.97;85.55
70676;DHT22;59069;52.242;20.900;2024-01-25T13:27:44;4.90;84.94
70676;DHT22;59069;52.242;20.900;2024-01-25T13:30:10;4.83;84.95
70676;DHT22;59069;52.242;20.900;2024-01-25T13:32:37;4.80;85.11
70676;DHT22;59069;52.242;20.900;2024-01-25T13:35:03;4.77;85.37
70676;DHT22;59069;52.242;20.900;2024-01-25T13:37:28;4.73;85.27
70676;DHT22;59069;52.242;20.900;2024-01-25T13:39:54;4.72;85.54
70676;DHT22;59069;52.242;20.900;2024-01-25T13:42:19;4.70;85.76
70676;DHT22;59069;52.242;20.900;2024-01-25T13:44:45;4.70;85.82
70676;DHT22;59069;52.242;20.900;2024-01-25T13:47:10;4.72;85.90
70676;DHT22;59069;52.242;20.900;2024-01-25T13:49:35;4.76;85.90
70676;DHT22;59069;52.242;20.900;2024-01-25T13:52:02;4.75;86.09
70676;DHT22;59069;52.242;20.900;2024-01-25T13:54:28;4.79;86.06
70676;DHT22;59069;52.242;20.900;2024-01-25T13:56:54;4.76;85.76
70676;DHT22;59069;52.242;20.900;2024-01-25T13:59:20;4.75;85.27
70676;DHT22;59069;52.242;20.900;2024-01-25T14:01:46;4.66;84.65
70676;DHT22;59069;52.242;20.900;2024-01-25T14:04:11;4.60;84.30
70676;DHT22;59069;52.242;20.900;2024-01-25T14:06:37;4.52;84.07
70676;DHT22;59069;52.242;20.900;2024-01-25T14:09:03;4.44;83.85
70676;DHT22;59069;52.242;20.900;2024-01-25T14:11:28;4.35;83.73
70676;DHT22;59069;52.242;20.900;2024-01-25T14:13:54;4.25;83.67
70676;DHT22;59069;52.242;20.900;2024-01-25T14:16:19;4.17;83.83
70676;DHT22;59069;52.242;20.900;2024-01-25T14:18:45;4.09;83.88
70676;DHT22;59069;52.242;20.900;2024-01-25T14:21:10;4.07;83.96
70676;DHT22;59069;52.242;20.900;2024-01-25T14:23:36;4.01;83.91
70676;DHT22;59069;52.242;20.900;2024-01-25T14:26:01;3.95;84.10
70676;DHT22;59069;52.242;20.900;2024-01-25T14:28:27;3.94;84.13
70676;DHT22;59069;52.242;20.900;2024-01-25T14:30:52;3.94;83.95
70676;DHT22;59069;52.242;20.900;2024-01-25T14:33:17;3.90;83.93
70676;DHT22;59069;52.242;20.900;2024-01-25T14:35:43;3.90;83.96
70676;DHT22;59069;52.242;20.900;2024-01-25T14:38:09;3.90;83.99
70676;DHT22;59069;52.242;20.900;2024-01-25T14:40:34;3.88;83.95
70676;DHT22;59069;52.242;20.900;2024-01-25T14:42:59;3.88;83.87
70676;DHT22;59069;52.242;20.900;2024-01-25T14:45:26;3.87;83.84
70676;DHT22;59069;52.242;20.900;2024-01-25T14:47:53;3.85;83.70
70676;DHT22;59069;52.242;20.900;2024-01-25T14:50:19;3.87;83.35
70676;DHT22;59069;52.242;20.900;2024-01-25T14:52:44;3.84;83.18
70676;DHT22;59069;52.242;20.900;2024-01-25T14:55:10;3.81;83.12
70676;DHT22;59069;52.242;20.900;2024-01-25T14:57:35;3.78;82.96
70676;DHT22;59069;52.242;20.900;2024-01-25T15:00:01;3.78;82.66
70676;DHT22;59069;52.242;20.900;2024-01-25T15:02:26;3.74;82.37
70676;DHT22;59069;52.242;20.900;2024-01-25T15:04:52;3.77;81.91
70676;DHT22;59069;52.242;20.900;2024-01-25T15:07:17;3.76;81.44
70676;DHT22;59069;52.242;20.900;2024-01-25T15:09:49;3.74;81.20
70676;DHT22;59069;52.242;20.900;2024-01-25T15:12:15;3.73;80.98
70676;DHT22;59069;52.242;20.900;2024-01-25T15:14:40;3.71;80.96
70676;DHT22;59069;52.242;20.900;2024-01-25T15:17:06;3.73;80.88
70676;DHT22;59069;52.242;20.900;2024-01-25T15:19:32;3.74;80.63
70676;DHT22;59069;52.242;20.900;2024-01-25T15:21:57;3.74;80.51